Vampy — WDG8804 — position and weather

sailwx.info

Track history (hours):
 
Tides and Currents Weather Stations Pressure Air Temp Water Temp Dewpoint Dewpoint Depression Visibility Wind Speed Wind Dir Waves Ship Positions

Vampy

Owner: VAMPY LLC., Seattle, WA. More information available from US FCC via Universal Licensing System and Coast Guard Vessel Documentation Center.

Last reported at 2018-Jun-19 18:20 UTC. Time now 2018-Jun-24 07:28 UTC.
Position N 54°25' W 131°19'.

Length 22 m; draft 2.8 m.

Type: Fishing. MMSI: 367581250.

Date/timePositionNaut miles runAvg speedWind from/ knotsBaromVisibWave heightAir tempDewpointWater temp
2018-Jun-19 18:20N 54°25' W 131°19'4 9.3
2018-Jun-19 17:58N 54°24' W 131°13'4 9.2
2018-Jun-19 17:30N 54°22' W 131°07'4 9.1
2018-Jun-19 17:00N 54°20' W 130°60'5 9.3
2018-Jun-19 16:30N 54°18' W 130°52'5 9.4
2018-Jun-19 16:00N 54°15' W 130°46'4 9.0
2018-Jun-19 15:30N 54°12' W 130°41'4 8.7
2018-Jun-19 15:01N 54°10' W 130°34'4 8.6
2018-Jun-19 14:30N 54°08' W 130°28'4 8.5
2018-Jun-19 14:00N 54°06' W 130°22'4 8.8
2018-Jun-19 13:30N 54°03' W 130°16'5 9.3
2018-Jun-19 13:00N 53°59' W 130°13'4 8.9
2018-Jun-19 12:30N 53°55' W 130°10'4 8.5
2018-Jun-19 12:00N 53°52' W 130°04'4 8.2
2018-Jun-19 11:30N 53°49' W 129°59'4 7.9
2018-Jun-19 11:00N 53°46' W 129°55'83 7.3
2018-Jun-18 23:36N 52°40' W 128°32'4 9.6
2018-Jun-18 23:13N 52°36' W 128°31'2 8.6
2018-Jun-18 23:00N 52°34' W 128°31'5 9.0
2018-Jun-18 22:29N 52°30' W 128°28'5 9.6
2018-Jun-18 22:00N 52°25' W 128°29'5 9.6
2018-Jun-18 21:30N 52°21' W 128°29'4 8.6
2018-Jun-18 21:00N 52°17' W 128°26'4 8.3
2018-Jun-18 20:30N 52°15' W 128°20'4 8.7
2018-Jun-18 20:00N 52°14' W 128°13'4 8.5
2018-Jun-18 19:30N 52°12' W 128°07'2 3.9
2018-Jun-18 19:00N 52°10' W 128°08'3 6.0
2018-Jun-18 18:30N 52°07' W 128°08'4 7.8
2018-Jun-18 17:59N 52°04' W 128°03'4 8.4
2018-Jun-18 17:30N 52°04' W 127°56'4 8.0
2018-Jun-18 17:00N 51°60' W 127°55'4 7.8
2018-Jun-18 16:31N 51°56' W 127°55'4 8.2
2018-Jun-18 16:00N 51°52' W 127°56'4 8.6
2018-Jun-18 15:30N 51°47' W 127°56'4 8.6
2018-Jun-18 15:00N 51°43' W 127°57'4 8.3
2018-Jun-18 14:30N 51°39' W 127°55'4 8.4
2018-Jun-18 14:00N 51°35' W 127°52'4 8.5
2018-Jun-18 13:30N 51°31' W 127°50'4 8.3
2018-Jun-18 13:01N 51°27' W 127°49'4 8.0
2018-Jun-18 12:30N 51°23' W 127°50'5 8.7
2018-Jun-18 11:59N 51°19' W 127°50'5 8.8
2018-Jun-18 11:27N 51°14' W 127°50'4 8.6
2018-Jun-18 10:59N 51°10' W 127°49'4 7.9
2018-Jun-18 10:30N 51°07' W 127°45'4 8.3
2018-Jun-18 10:00N 51°04' W 127°41'4 8.4
2018-Jun-18 09:30N 51°01' W 127°36'4 8.4
2018-Jun-18 09:01N 50°58' W 127°31'4 8.5
2018-Jun-18 08:31N 50°55' W 127°26'4 8.4
2018-Jun-18 08:01N 50°53' W 127°20'5 8.8
2018-Jun-18 07:29N 50°51' W 127°14'5 9.1
2018-Jun-18 06:58N 50°48' W 127°08'8 9.0
2018-Jun-18 06:05N 50°43' W 126°58'20 8.6
2018-Jun-18 03:47N 50°31' W 126°34'2 8.8
2018-Jun-18 03:30N 50°31' W 126°30'41 6.8
2018-Jun-17 21:29N 50°21' W 125°27'4 8.2
2018-Jun-17 21:00N 50°17' W 125°24'5 9.3
2018-Jun-17 20:31N 50°13' W 125°22'510.7
2018-Jun-17 20:00N 50°07' W 125°20'510.0
2018-Jun-17 19:30N 50°04' W 125°15'510.0
2018-Jun-17 19:00N 49°59' W 125°12'4 7.3
2018-Jun-17 18:30N 49°57' W 125°08'3 6.5
2018-Jun-17 18:00N 49°55' W 125°04'4 6.9
2018-Jun-17 17:30N 49°53' W 124°59'4 8.4
2018-Jun-17 17:00N 49°50' W 124°54'4 8.6
2018-Jun-17 16:30N 49°48' W 124°49'4 8.4
2018-Jun-17 16:00N 49°45' W 124°44'4 8.2
2018-Jun-17 15:30N 49°42' W 124°39'4 8.4
2018-Jun-17 14:58N 49°40' W 124°34'4 8.6
2018-Jun-17 14:30N 49°37' W 124°29'5 8.7
2018-Jun-17 13:58N 49°35' W 124°23'12 8.2
2018-Jun-17 12:31N 49°28' W 124°07'014.3
2018-Jun-17 12:30N 49°28' W 124°07'31 7.2
2018-Jun-17 08:14N 49°09' W 123°30'2 6.7
2018-Jun-17 07:57N 49°08' W 123°28'3 6.6
2018-Jun-17 07:30N 49°06' W 123°25'3 6.7
2018-Jun-17 07:00N 49°03' W 123°21'3 7.0
2018-Jun-17 06:30N 49°01' W 123°17'5 7.3
2018-Jun-17 05:52N 48°59' W 123°11'2 6.6
2018-Jun-17 05:30N 48°57' W 123°08'10 8.2
2018-Jun-17 04:16N 48°52' W 122°55'8 8.1
2018-Jun-17 03:17N 48°47' W 122°45'4 9.0
2018-Jun-17 02:50N 48°44' W 122°41'5 9.7
2018-Jun-17 02:22N 48°41' W 122°36'6 0.2
2018-Jun-15 13:38N 48°45' W 122°30'0 0.0
2018-Jun-15 04:26N 48°45' W 122°30'0 0.0
2018-Jun-15 03:59N 48°45' W 122°30'0 0.0
2018-Jun-15 03:29N 48°45' W 122°30'0 0.0
2018-Jun-15 02:21N 48°45' W 122°30'0 0.0
2018-Jun-14 12:07N 48°45' W 122°30'0 0.0
2018-Jun-14 11:59N 48°45' W 122°30'0 0.0
2018-Jun-14 11:26N 48°45' W 122°30'0 0.0
2018-Jun-14 10:51N 48°45' W 122°30'0 0.0
2018-Jun-14 10:25N 48°45' W 122°30'0 0.0
2018-Jun-14 10:00N 48°45' W 122°30'0 0.0
2018-Jun-14 02:46N 48°45' W 122°30'0 0.0
2018-Jun-14 02:30N 48°45' W 122°30'0 0.0
2018-Jun-14 02:00N 48°45' W 122°30'0 0.0
2018-Jun-14 01:26N 48°45' W 122°30'0 0.0
2018-Jun-14 01:00N 48°45' W 122°30'0 0.0
2018-Jun-13 10:45N 48°45' W 122°30'0 0.0
2018-Jun-13 08:24N 48°45' W 122°30'0 0.0
2018-Jun-13 07:57N 48°45' W 122°30'0 0.0
2018-Jun-12 22:39N 48°45' W 122°30'0 0.3
2018-Jun-12 22:29N 48°45' W 122°30'0 0.0
2018-Jun-12 21:58N 48°45' W 122°30'0 0.0
2018-Jun-12 21:29N 48°45' W 122°30'0 0.0
2018-Jun-12 21:00N 48°45' W 122°30'0 0.1
2018-Jun-12 20:20N 48°45' W 122°30'0 0.0
2018-Jun-12 20:00N 48°45' W 122°30'0 0.0
2018-Jun-12 19:29N 48°45' W 122°30'0 0.0
2018-Jun-12 18:59N 48°45' W 122°30'0 0.0
2018-Jun-12 18:30N 48°45' W 122°30'0 0.0
2018-Jun-12 17:59N 48°45' W 122°30'0 0.0
2018-Jun-12 17:29N 48°45' W 122°30'0 0.0
2018-Jun-12 17:00N 48°45' W 122°30'0 0.0
2018-Jun-12 16:30N 48°45' W 122°30'0 0.0
2018-Jun-12 15:59N 48°45' W 122°30'0 0.0
2018-Jun-12 15:21N 48°45' W 122°30'0 0.0
2018-Jun-12 15:00N 48°45' W 122°30'0 0.0
2018-Jun-12 14:30N 48°45' W 122°30'0 0.0
2018-Jun-12 14:00N 48°45' W 122°30'0 0.0
2018-Jun-12 13:30N 48°45' W 122°30'0 0.0
2018-Jun-12 13:00N 48°45' W 122°30'0 0.0
2018-Jun-12 12:30N 48°45' W 122°30'0 0.0
2018-Jun-12 11:57N 48°45' W 122°30'0 0.0
2018-Jun-12 11:30N 48°45' W 122°30'0 0.0
2018-Jun-12 10:59N 48°45' W 122°30'0 0.0
2018-Jun-12 10:29N 48°45' W 122°30'0 0.0
2018-Jun-12 10:00N 48°45' W 122°30'0 0.0
2018-Jun-12 09:30N 48°45' W 122°30'0 0.0
2018-Jun-12 09:00N 48°45' W 122°30'0 0.0
2018-Jun-12 08:30N 48°45' W 122°30'0 0.0
2018-Jun-12 08:00N 48°45' W 122°30'0 0.0
2018-Jun-12 07:28N 48°45' W 122°30'2 4.4
2018-Jun-12 06:58N 48°43' W 122°32'4 8.6
2018-Jun-12 06:30N 48°40' W 122°34'4 8.3
2018-Jun-12 06:00N 48°36' W 122°38'4 7.9
2018-Jun-12 05:30N 48°33' W 122°40'4 7.7
2018-Jun-12 05:00N 48°29' W 122°43'4 8.2
2018-Jun-12 04:28N 48°25' W 122°44'4 8.3
2018-Jun-12 04:00N 48°21' W 122°45'26 8.9
2018-Jun-12 01:03N 47°57' W 122°32'3 8.5
2018-Jun-12 00:44N 47°55' W 122°29'2 9.5
2018-Jun-12 00:30N 47°53' W 122°28'5 9.1
2018-Jun-12 00:00N 47°48' W 122°26'4 8.8
2018-Jun-11 23:30N 47°44' W 122°26'4 7.9
2018-Jun-11 23:01N 47°40' W 122°24'0 0.8
2018-Jun-11 22:30N 47°40' W 122°24'0 0.4
2018-Jun-11 22:00N 47°40' W 122°23'0 0.0
2018-Jun-11 21:30N 47°40' W 122°23'0 0.0
2018-Jun-11 21:00N 47°40' W 122°23'1 1.6
2018-Jun-11 20:30N 47°39' W 122°23'0 0.0
2018-Jun-11 20:00N 47°39' W 122°23'0 0.0
2018-Jun-11 19:30N 47°39' W 122°23'0 0.0
2018-Jun-11 19:00N 47°39' W 122°23'0 0.0
2018-Jun-11 18:30N 47°39' W 122°23'0 0.0
2018-Jun-11 18:00N 47°39' W 122°23'0 0.0
2018-Jun-11 17:30N 47°39' W 122°23'  
Track history (hours):
 
Tides and Currents Weather Stations Pressure Air Temp Water Temp Dewpoint Dewpoint Depression Visibility Wind Speed Wind Dir Waves Ship Positions

Vampy

Owner: VAMPY LLC., Seattle, WA. More information available from US FCC via Universal Licensing System and Coast Guard Vessel Documentation Center.

Last reported at 2018-Jun-19 18:20 UTC. Time now 2018-Jun-24 07:28 UTC.
Position N 54°25' W 131°19'.

Length 22 m; draft 2.8 m.

Type: Fishing. MMSI: 367581250.

Date/timePositionNaut miles runAvg speedWind from/ knotsBaromVisibWave heightAir tempDewpointWater temp
2018-Jun-19 18:20N 54°25' W 131°19'4 9.3
2018-Jun-19 17:58N 54°24' W 131°13'4 9.2
2018-Jun-19 17:30N 54°22' W 131°07'4 9.1
2018-Jun-19 17:00N 54°20' W 130°60'5 9.3
2018-Jun-19 16:30N 54°18' W 130°52'5 9.4
2018-Jun-19 16:00N 54°15' W 130°46'4 9.0
2018-Jun-19 15:30N 54°12' W 130°41'4 8.7
2018-Jun-19 15:01N 54°10' W 130°34'4 8.6
2018-Jun-19 14:30N 54°08' W 130°28'4 8.5
2018-Jun-19 14:00N 54°06' W 130°22'4 8.8
2018-Jun-19 13:30N 54°03' W 130°16'5 9.3
2018-Jun-19 13:00N 53°59' W 130°13'4 8.9
2018-Jun-19 12:30N 53°55' W 130°10'4 8.5
2018-Jun-19 12:00N 53°52' W 130°04'4 8.2
2018-Jun-19 11:30N 53°49' W 129°59'4 7.9
2018-Jun-19 11:00N 53°46' W 129°55'83 7.3
2018-Jun-18 23:36N 52°40' W 128°32'4 9.6
2018-Jun-18 23:13N 52°36' W 128°31'2 8.6
2018-Jun-18 23:00N 52°34' W 128°31'5 9.0
2018-Jun-18 22:29N 52°30' W 128°28'5 9.6
2018-Jun-18 22:00N 52°25' W 128°29'5 9.6
2018-Jun-18 21:30N 52°21' W 128°29'4 8.6
2018-Jun-18 21:00N 52°17' W 128°26'4 8.3
2018-Jun-18 20:30N 52°15' W 128°20'4 8.7
2018-Jun-18 20:00N 52°14' W 128°13'4 8.5
2018-Jun-18 19:30N 52°12' W 128°07'2 3.9
2018-Jun-18 19:00N 52°10' W 128°08'3 6.0
2018-Jun-18 18:30N 52°07' W 128°08'4 7.8
2018-Jun-18 17:59N 52°04' W 128°03'4 8.4
2018-Jun-18 17:30N 52°04' W 127°56'4 8.0
2018-Jun-18 17:00N 51°60' W 127°55'4 7.8
2018-Jun-18 16:31N 51°56' W 127°55'4 8.2
2018-Jun-18 16:00N 51°52' W 127°56'4 8.6
2018-Jun-18 15:30N 51°47' W 127°56'4 8.6
2018-Jun-18 15:00N 51°43' W 127°57'4 8.3
2018-Jun-18 14:30N 51°39' W 127°55'4 8.4
2018-Jun-18 14:00N 51°35' W 127°52'4 8.5
2018-Jun-18 13:30N 51°31' W 127°50'4 8.3
2018-Jun-18 13:01N 51°27' W 127°49'4 8.0
2018-Jun-18 12:30N 51°23' W 127°50'5 8.7
2018-Jun-18 11:59N 51°19' W 127°50'5 8.8
2018-Jun-18 11:27N 51°14' W 127°50'4 8.6
2018-Jun-18 10:59N 51°10' W 127°49'4 7.9
2018-Jun-18 10:30N 51°07' W 127°45'4 8.3
2018-Jun-18 10:00N 51°04' W 127°41'4 8.4
2018-Jun-18 09:30N 51°01' W 127°36'4 8.4
2018-Jun-18 09:01N 50°58' W 127°31'4 8.5
2018-Jun-18 08:31N 50°55' W 127°26'4 8.4
2018-Jun-18 08:01N 50°53' W 127°20'5 8.8
2018-Jun-18 07:29N 50°51' W 127°14'5 9.1
2018-Jun-18 06:58N 50°48' W 127°08'8 9.0
2018-Jun-18 06:05N 50°43' W 126°58'20 8.6
2018-Jun-18 03:47N 50°31' W 126°34'2 8.8
2018-Jun-18 03:30N 50°31' W 126°30'41 6.8
2018-Jun-17 21:29N 50°21' W 125°27'4 8.2
2018-Jun-17 21:00N 50°17' W 125°24'5 9.3
2018-Jun-17 20:31N 50°13' W 125°22'510.7
2018-Jun-17 20:00N 50°07' W 125°20'510.0
2018-Jun-17 19:30N 50°04' W 125°15'510.0
2018-Jun-17 19:00N 49°59' W 125°12'4 7.3
2018-Jun-17 18:30N 49°57' W 125°08'3 6.5
2018-Jun-17 18:00N 49°55' W 125°04'4 6.9
2018-Jun-17 17:30N 49°53' W 124°59'4 8.4
2018-Jun-17 17:00N 49°50' W 124°54'4 8.6
2018-Jun-17 16:30N 49°48' W 124°49'4 8.4
2018-Jun-17 16:00N 49°45' W 124°44'4 8.2
2018-Jun-17 15:30N 49°42' W 124°39'4 8.4
2018-Jun-17 14:58N 49°40' W 124°34'4 8.6
2018-Jun-17 14:30N 49°37' W 124°29'5 8.7
2018-Jun-17 13:58N 49°35' W 124°23'12 8.2
2018-Jun-17 12:31N 49°28' W 124°07'014.3
2018-Jun-17 12:30N 49°28' W 124°07'31 7.2
2018-Jun-17 08:14N 49°09' W 123°30'2 6.7
2018-Jun-17 07:57N 49°08' W 123°28'3 6.6
2018-Jun-17 07:30N 49°06' W 123°25'3 6.7
2018-Jun-17 07:00N 49°03' W 123°21'3 7.0
2018-Jun-17 06:30N 49°01' W 123°17'5 7.3
2018-Jun-17 05:52N 48°59' W 123°11'2 6.6
2018-Jun-17 05:30N 48°57' W 123°08'10 8.2
2018-Jun-17 04:16N 48°52' W 122°55'8 8.1
2018-Jun-17 03:17N 48°47' W 122°45'4 9.0
2018-Jun-17 02:50N 48°44' W 122°41'5 9.7
2018-Jun-17 02:22N 48°41' W 122°36'6 0.2
2018-Jun-15 13:38N 48°45' W 122°30'0 0.0
2018-Jun-15 04:26N 48°45' W 122°30'0 0.0
2018-Jun-15 03:59N 48°45' W 122°30'0 0.0
2018-Jun-15 03:29N 48°45' W 122°30'0 0.0
2018-Jun-15 02:21N 48°45' W 122°30'0 0.0
2018-Jun-14 12:07N 48°45' W 122°30'0 0.0
2018-Jun-14 11:59N 48°45' W 122°30'0 0.0
2018-Jun-14 11:26N 48°45' W 122°30'0 0.0
2018-Jun-14 10:51N 48°45' W 122°30'0 0.0
2018-Jun-14 10:25N 48°45' W 122°30'0 0.0
2018-Jun-14 10:00N 48°45' W 122°30'0 0.0
2018-Jun-14 02:46N 48°45' W 122°30'0 0.0
2018-Jun-14 02:30N 48°45' W 122°30'0 0.0
2018-Jun-14 02:00N 48°45' W 122°30'0 0.0
2018-Jun-14 01:26N 48°45' W 122°30'0 0.0
2018-Jun-14 01:00N 48°45' W 122°30'0 0.0
2018-Jun-13 10:45N 48°45' W 122°30'0 0.0
2018-Jun-13 08:24N 48°45' W 122°30'0 0.0
2018-Jun-13 07:57N 48°45' W 122°30'0 0.0
2018-Jun-12 22:39N 48°45' W 122°30'0 0.3
2018-Jun-12 22:29N 48°45' W 122°30'0 0.0
2018-Jun-12 21:58N 48°45' W 122°30'0 0.0
2018-Jun-12 21:29N 48°45' W 122°30'0 0.0
2018-Jun-12 21:00N 48°45' W 122°30'0 0.1
2018-Jun-12 20:20N 48°45' W 122°30'0 0.0
2018-Jun-12 20:00N 48°45' W 122°30'0 0.0
2018-Jun-12 19:29N 48°45' W 122°30'0 0.0
2018-Jun-12 18:59N 48°45' W 122°30'0 0.0
2018-Jun-12 18:30N 48°45' W 122°30'0 0.0
2018-Jun-12 17:59N 48°45' W 122°30'0 0.0
2018-Jun-12 17:29N 48°45' W 122°30'0 0.0
2018-Jun-12 17:00N 48°45' W 122°30'0 0.0
2018-Jun-12 16:30N 48°45' W 122°30'0 0.0
2018-Jun-12 15:59N 48°45' W 122°30'0 0.0
2018-Jun-12 15:21N 48°45' W 122°30'0 0.0
2018-Jun-12 15:00N 48°45' W 122°30'0 0.0
2018-Jun-12 14:30N 48°45' W 122°30'0 0.0
2018-Jun-12 14:00N 48°45' W 122°30'0 0.0
2018-Jun-12 13:30N 48°45' W 122°30'0 0.0
2018-Jun-12 13:00N 48°45' W 122°30'0 0.0
2018-Jun-12 12:30N 48°45' W 122°30'0 0.0
2018-Jun-12 11:57N 48°45' W 122°30'0 0.0
2018-Jun-12 11:30N 48°45' W 122°30'0 0.0
2018-Jun-12 10:59N 48°45' W 122°30'0 0.0
2018-Jun-12 10:29N 48°45' W 122°30'0 0.0
2018-Jun-12 10:00N 48°45' W 122°30'0 0.0
2018-Jun-12 09:30N 48°45' W 122°30'0 0.0
2018-Jun-12 09:00N 48°45' W 122°30'0 0.0
2018-Jun-12 08:30N 48°45' W 122°30'0 0.0
2018-Jun-12 08:00N 48°45' W 122°30'0 0.0
2018-Jun-12 07:28N 48°45' W 122°30'2 4.4
2018-Jun-12 06:58N 48°43' W 122°32'4 8.6
2018-Jun-12 06:30N 48°40' W 122°34'4 8.3
2018-Jun-12 06:00N 48°36' W 122°38'4 7.9
2018-Jun-12 05:30N 48°33' W 122°40'4 7.7
2018-Jun-12 05:00N 48°29' W 122°43'4 8.2
2018-Jun-12 04:28N 48°25' W 122°44'4 8.3
2018-Jun-12 04:00N 48°21' W 122°45'26 8.9
2018-Jun-12 01:03N 47°57' W 122°32'3 8.5
2018-Jun-12 00:44N 47°55' W 122°29'2 9.5
2018-Jun-12 00:30N 47°53' W 122°28'5 9.1
2018-Jun-12 00:00N 47°48' W 122°26'4 8.8
2018-Jun-11 23:30N 47°44' W 122°26'4 7.9
2018-Jun-11 23:01N 47°40' W 122°24'0 0.8
2018-Jun-11 22:30N 47°40' W 122°24'0 0.4
2018-Jun-11 22:00N 47°40' W 122°23'0 0.0
2018-Jun-11 21:30N 47°40' W 122°23'0 0.0
2018-Jun-11 21:00N 47°40' W 122°23'1 1.6
2018-Jun-11 20:30N 47°39' W 122°23'0 0.0
2018-Jun-11 20:00N 47°39' W 122°23'0 0.0
2018-Jun-11 19:30N 47°39' W 122°23'0 0.0
2018-Jun-11 19:00N 47°39' W 122°23'0 0.0
2018-Jun-11 18:30N 47°39' W 122°23'0 0.0
2018-Jun-11 18:00N 47°39' W 122°23'0 0.0
2018-Jun-11 17:30N 47°39' W 122°23'  

Dump ship's entire track history